sensor_id;sensor_type;location;lat;lon;timestamp;pressure;altitude;pressure_sealevel;temperature;humidity
74045;BME280;62389;51.412;5.436;2023-01-01T00:01:28;100757.13;;;14.90;55.25
74045;BME280;62389;51.412;5.436;2023-01-01T00:03:55;100746.59;;;14.90;54.51
74045;BME280;62389;51.412;5.436;2023-01-01T00:06:22;100748.38;;;14.90;55.11
74045;BME280;62389;51.412;5.436;2023-01-01T00:08:48;100743.22;;;14.88;54.74
74045;BME280;62389;51.412;5.436;2023-01-01T00:11:13;100751.97;;;14.89;54.32
74045;BME280;62389;51.412;5.436;2023-01-01T00:13:40;100758.06;;;14.89;54.19
74045;BME280;62389;51.412;5.436;2023-01-01T00:18:33;100760.59;;;14.91;54.20
74045;BME280;62389;51.412;5.436;2023-01-01T00:21:08;100777.63;;;14.85;53.77
74045;BME280;62389;51.412;5.436;2023-01-01T00:23:34;100775.94;;;14.84;53.83
74045;BME280;62389;51.412;5.436;2023-01-01T00:26:00;100785.75;;;14.82;54.02
74045;BME280;62389;51.412;5.436;2023-01-01T00:28:26;100784.97;;;14.80;53.45
74045;BME280;62389;51.412;5.436;2023-01-01T00:30:51;100780.66;;;14.79;53.14
74045;BME280;62389;51.412;5.436;2023-01-01T00:33:17;100778.03;;;14.79;53.62
74045;BME280;62389;51.412;5.436;2023-01-01T00:35:42;100772.56;;;14.82;53.80
74045;BME280;62389;51.412;5.436;2023-01-01T00:38:08;100771.81;;;14.80;53.31
74045;BME280;62389;51.412;5.436;2023-01-01T00:40:33;100781.59;;;14.78;53.63
74045;BME280;62389;51.412;5.436;2023-01-01T00:42:59;100773.69;;;14.78;53.93
74045;BME280;62389;51.412;5.436;2023-01-01T00:45:24;100771.19;;;14.76;53.40
74045;BME280;62389;51.412;5.436;2023-01-01T00:47:51;100782.72;;;14.74;53.94
74045;BME280;62389;51.412;5.436;2023-01-01T00:50:17;100768.06;;;14.70;54.65
74045;BME280;62389;51.412;5.436;2023-01-01T00:52:42;100768.81;;;14.72;53.67
74045;BME280;62389;51.412;5.436;2023-01-01T00:55:09;100766.19;;;14.72;53.66
74045;BME280;62389;51.412;5.436;2023-01-01T00:57:34;100775.66;;;14.74;53.46
74045;BME280;62389;51.412;5.436;2023-01-01T00:59:59;100781.16;;;14.71;54.18
74045;BME280;62389;51.412;5.436;2023-01-01T01:02:25;100786.22;;;14.74;53.60
74045;BME280;62389;51.412;5.436;2023-01-01T01:04:50;100793.38;;;14.72;53.03
74045;BME280;62389;51.412;5.436;2023-01-01T01:07:15;100800.41;;;14.72;53.75
74045;BME280;62389;51.412;5.436;2023-01-01T01:09:41;100782.16;;;14.69;53.38
74045;BME280;62389;51.412;5.436;2023-01-01T01:12:06;100768.63;;;14.75;53.27
74045;BME280;62389;51.412;5.436;2023-01-01T01:14:31;100788.47;;;14.66;53.04
74045;BME280;62389;51.412;5.436;2023-01-01T01:16:57;100782.56;;;14.63;53.71
74045;BME280;62389;51.412;5.436;2023-01-01T01:19:22;100788.00;;;14.60;54.17
74045;BME280;62389;51.412;5.436;2023-01-01T01:21:50;100797.78;;;14.58;53.15
74045;BME280;62389;51.412;5.436;2023-01-01T01:24:16;100799.56;;;14.57;53.92
74045;BME280;62389;51.412;5.436;2023-01-01T01:26:41;100798.91;;;14.54;53.06
74045;BME280;62389;51.412;5.436;2023-01-01T01:29:07;100796.38;;;14.52;53.21
74045;BME280;62389;51.412;5.436;2023-01-01T01:31:32;100793.06;;;14.48;54.36
74045;BME280;62389;51.412;5.436;2023-01-01T01:33:59;100794.16;;;14.44;54.19
74045;BME280;62389;51.412;5.436;2023-01-01T01:36:24;100801.31;;;14.42;53.71
74045;BME280;62389;51.412;5.436;2023-01-01T01:38:50;100798.84;;;14.39;53.82
74045;BME280;62389;51.412;5.436;2023-01-01T01:41:18;100787.59;;;14.37;54.36
74045;BME280;62389;51.412;5.436;2023-01-01T01:43:49;100800.16;;;14.32;54.50
74045;BME280;62389;51.412;5.436;2023-01-01T01:46:19;100803.53;;;14.34;54.29
74045;BME280;62389;51.412;5.436;2023-01-01T01:48:48;100806.28;;;14.33;54.91
74045;BME280;62389;51.412;5.436;2023-01-01T01:51:19;100821.38;;;14.29;53.86
74045;BME280;62389;51.412;5.436;2023-01-01T01:53:49;100807.50;;;14.27;55.00
74045;BME280;62389;51.412;5.436;2023-01-01T01:56:20;100816.31;;;14.26;54.39
74045;BME280;62389;51.412;5.436;2023-01-01T01:58:48;100826.84;;;14.26;54.04
74045;BME280;62389;51.412;5.436;2023-01-01T02:01:13;100828.72;;;14.24;54.73
74045;BME280;62389;51.412;5.436;2023-01-01T02:03:43;100835.00;;;14.21;55.22
74045;BME280;62389;51.412;5.436;2023-01-01T02:06:12;100833.50;;;14.17;54.96
74045;BME280;62389;51.412;5.436;2023-01-01T02:08:37;100834.50;;;14.15;55.05
74045;BME280;62389;51.412;5.436;2023-01-01T02:11:03;100846.75;;;14.16;54.55
74045;BME280;62389;51.412;5.436;2023-01-01T02:13:29;100841.38;;;14.17;55.40
74045;BME280;62389;51.412;5.436;2023-01-01T02:16:10;100852.47;;;14.22;54.59
74045;BME280;62389;51.412;5.436;2023-01-01T02:18:57;100833.28;;;14.20;55.48
74045;BME280;62389;51.412;5.436;2023-01-01T02:21:30;100837.91;;;14.17;55.71
74045;BME280;62389;51.412;5.436;2023-01-01T02:30:09;100846.44;;;14.20;55.82
74045;BME280;62389;51.412;5.436;2023-01-01T02:32:22;100855.53;;;14.15;55.73
74045;BME280;62389;51.412;5.436;2023-01-01T02:34:53;100859.13;;;14.14;55.90
74045;BME280;62389;51.412;5.436;2023-01-01T02:37:22;100849.63;;;14.11;56.44
74045;BME280;62389;51.412;5.436;2023-01-01T02:39:57;100842.06;;;14.21;55.61
74045;BME280;62389;51.412;5.436;2023-01-01T02:42:26;100839.97;;;14.12;56.10
74045;BME280;62389;51.412;5.436;2023-01-01T02:44:54;100840.97;;;14.09;55.70
74045;BME280;62389;51.412;5.436;2023-01-01T02:47:21;100845.47;;;14.07;56.14
74045;BME280;62389;51.412;5.436;2023-01-01T02:49:57;100842.50;;;14.13;56.02
74045;BME280;62389;51.412;5.436;2023-01-01T02:52:42;100848.13;;;14.07;57.13
74045;BME280;62389;51.412;5.436;2023-01-01T02:57:58;100849.81;;;14.08;55.69
74045;BME280;62389;51.412;5.436;2023-01-01T03:00:47;100864.91;;;14.05;56.57
74045;BME280;62389;51.412;5.436;2023-01-01T03:03:41;100850.06;;;14.04;56.41
74045;BME280;62389;51.412;5.436;2023-01-01T03:06:20;100860.75;;;14.00;57.21
74045;BME280;62389;51.412;5.436;2023-01-01T03:11:59;100871.22;;;14.02;56.53
74045;BME280;62389;51.412;5.436;2023-01-01T03:17:03;100870.53;;;13.98;58.13
74045;BME280;62389;51.412;5.436;2023-01-01T03:19:35;100877.66;;;13.96;57.71
74045;BME280;62389;51.412;5.436;2023-01-01T03:22:21;100879.50;;;13.94;58.08
74045;BME280;62389;51.412;5.436;2023-01-01T03:24:56;100883.25;;;13.90;58.48
74045;BME280;62389;51.412;5.436;2023-01-01T03:27:30;100877.25;;;13.88;58.67
74045;BME280;62389;51.412;5.436;2023-01-01T03:30:00;100881.56;;;13.89;58.61
74045;BME280;62389;51.412;5.436;2023-01-01T03:32:36;100867.66;;;13.87;57.83
74045;BME280;62389;51.412;5.436;2023-01-01T03:35:23;100872.72;;;13.90;57.86
74045;BME280;62389;51.412;5.436;2023-01-01T03:37:52;100885.13;;;13.88;58.81
74045;BME280;62389;51.412;5.436;2023-01-01T03:40:19;100886.91;;;13.88;58.35
74045;BME280;62389;51.412;5.436;2023-01-01T03:42:52;100880.91;;;13.86;59.18
74045;BME280;62389;51.412;5.436;2023-01-01T03:45:25;100871.97;;;13.88;58.41
74045;BME280;62389;51.412;5.436;2023-01-01T03:47:53;100889.44;;;13.89;58.53
74045;BME280;62389;51.412;5.436;2023-01-01T03:50:21;100905.22;;;13.89;58.28
74045;BME280;62389;51.412;5.436;2023-01-01T03:53:00;100914.06;;;13.88;59.41
74045;BME280;62389;51.412;5.436;2023-01-01T03:55:35;100897.28;;;13.91;58.78
74045;BME280;62389;51.412;5.436;2023-01-01T03:58:23;100897.53;;;13.86;59.63
74045;BME280;62389;51.412;5.436;2023-01-01T04:01:19;100873.78;;;13.88;59.51
74045;BME280;62389;51.412;5.436;2023-01-01T04:03:48;100883.59;;;13.84;59.38
74045;BME280;62389;51.412;5.436;2023-01-01T04:06:14;100905.66;;;13.82;59.25
74045;BME280;62389;51.412;5.436;2023-01-01T04:08:40;100915.00;;;13.87;59.00
74045;BME280;62389;51.412;5.436;2023-01-01T04:11:14;100927.19;;;13.88;58.90
74045;BME280;62389;51.412;5.436;2023-01-01T04:13:59;100921.94;;;13.88;59.35
74045;BME280;62389;51.412;5.436;2023-01-01T04:16:25;100921.00;;;13.89;59.75
74045;BME280;62389;51.412;5.436;2023-01-01T04:18:50;100906.50;;;13.82;60.70
74045;BME280;62389;51.412;5.436;2023-01-01T04:21:16;100912.97;;;13.77;61.89
74045;BME280;62389;51.412;5.436;2023-01-01T04:23:41;100917.03;;;13.66;62.54
74045;BME280;62389;51.412;5.436;2023-01-01T04:26:11;100913.88;;;13.60;62.79
74045;BME280;62389;51.412;5.436;2023-01-01T04:28:37;100899.25;;;13.56;62.25
74045;BME280;62389;51.412;5.436;2023-01-01T04:31:02;100908.13;;;13.53;62.56
74045;BME280;62389;51.412;5.436;2023-01-01T04:33:27;100892.25;;;13.55;62.33
74045;BME280;62389;51.412;5.436;2023-01-01T04:35:53;100901.88;;;13.56;62.70
74045;BME280;62389;51.412;5.436;2023-01-01T04:38:18;100910.84;;;13.52;62.81
74045;BME280;62389;51.412;5.436;2023-01-01T04:40:43;100906.69;;;13.47;63.71
74045;BME280;62389;51.412;5.436;2023-01-01T04:43:09;100925.22;;;13.44;62.86
74045;BME280;62389;51.412;5.436;2023-01-01T04:45:34;100924.38;;;13.44;63.17
74045;BME280;62389;51.412;5.436;2023-01-01T04:48:04;100928.69;;;13.45;63.18
74045;BME280;62389;51.412;5.436;2023-01-01T04:50:29;100922.59;;;13.44;62.79
74045;BME280;62389;51.412;5.436;2023-01-01T04:52:54;100935.84;;;13.43;63.38
74045;BME280;62389;51.412;5.436;2023-01-01T04:55:22;100931.31;;;13.45;62.90
74045;BME280;62389;51.412;5.436;2023-01-01T04:57:47;100929.72;;;13.42;63.30
74045;BME280;62389;51.412;5.436;2023-01-01T05:00:13;100935.00;;;13.42;63.67
74045;BME280;62389;51.412;5.436;2023-01-01T05:02:38;100947.63;;;13.52;62.84
74045;BME280;62389;51.412;5.436;2023-01-01T05:05:04;100948.88;;;13.44;63.67
74045;BME280;62389;51.412;5.436;2023-01-01T05:07:29;100956.94;;;13.41;63.13
74045;BME280;62389;51.412;5.436;2023-01-01T05:09:54;100952.69;;;13.39;63.52
74045;BME280;62389;51.412;5.436;2023-01-01T05:12:20;100967.59;;;13.38;63.75
74045;BME280;62389;51.412;5.436;2023-01-01T05:14:45;100970.22;;;13.38;63.64
74045;BME280;62389;51.412;5.436;2023-01-01T05:17:10;100952.78;;;13.37;63.74
74045;BME280;62389;51.412;5.436;2023-01-01T05:19:36;100970.38;;;13.35;64.04
74045;BME280;62389;51.412;5.436;2023-01-01T05:22:01;100976.50;;;13.36;64.41
74045;BME280;62389;51.412;5.436;2023-01-01T05:24:27;100980.97;;;13.34;63.63
74045;BME280;62389;51.412;5.436;2023-01-01T05:26:52;100996.84;;;13.32;63.59
74045;BME280;62389;51.412;5.436;2023-01-01T05:29:17;101008.09;;;13.34;63.80
74045;BME280;62389;51.412;5.436;2023-01-01T05:31:44;101005.31;;;13.37;64.51
74045;BME280;62389;51.412;5.436;2023-01-01T05:34:10;101007.00;;;13.38;63.48
74045;BME280;62389;51.412;5.436;2023-01-01T05:36:36;101018.47;;;13.37;63.93
74045;BME280;62389;51.412;5.436;2023-01-01T05:39:03;101013.13;;;13.39;64.11
74045;BME280;62389;51.412;5.436;2023-01-01T05:41:28;101025.50;;;13.37;64.16
74045;BME280;62389;51.412;5.436;2023-01-01T05:43:55;101018.53;;;13.36;63.66
74045;BME280;62389;51.412;5.436;2023-01-01T05:46:22;101026.47;;;13.34;64.01
74045;BME280;62389;51.412;5.436;2023-01-01T05:48:48;101037.00;;;13.34;64.21
74045;BME280;62389;51.412;5.436;2023-01-01T05:51:17;101045.66;;;13.36;64.15
74045;BME280;62389;51.412;5.436;2023-01-01T05:53:43;101039.56;;;13.36;63.70
74045;BME280;62389;51.412;5.436;2023-01-01T05:56:09;101045.81;;;13.33;64.45
74045;BME280;62389;51.412;5.436;2023-01-01T05:58:34;101060.72;;;13.33;64.97
74045;BME280;62389;51.412;5.436;2023-01-01T06:01:07;101056.31;;;13.33;63.78
74045;BME280;62389;51.412;5.436;2023-01-01T06:03:33;101075.72;;;13.31;64.69
74045;BME280;62389;51.412;5.436;2023-01-01T06:06:06;101074.94;;;13.29;64.98
74045;BME280;62389;51.412;5.436;2023-01-01T06:08:32;101068.69;;;13.31;64.50
74045;BME280;62389;51.412;5.436;2023-01-01T06:11:00;101067.16;;;13.27;64.96
74045;BME280;62389;51.412;5.436;2023-01-01T06:13:26;101066.13;;;13.30;64.96
74045;BME280;62389;51.412;5.436;2023-01-01T06:15:55;101068.00;;;13.28;65.38
74045;BME280;62389;51.412;5.436;2023-01-01T06:18:22;101085.63;;;13.26;64.76
74045;BME280;62389;51.412;5.436;2023-01-01T06:20:48;101080.44;;;13.24;64.74
74045;BME280;62389;51.412;5.436;2023-01-01T06:23:13;101070.75;;;13.25;64.42
74045;BME280;62389;51.412;5.436;2023-01-01T06:25:38;101079.66;;;13.22;65.40
74045;BME280;62389;51.412;5.436;2023-01-01T06:28:04;101085.78;;;13.23;65.28
74045;BME280;62389;51.412;5.436;2023-01-01T06:30:29;101097.13;;;13.23;65.40
74045;BME280;62389;51.412;5.436;2023-01-01T06:32:55;101106.03;;;13.19;65.78
74045;BME280;62389;51.412;5.436;2023-01-01T06:35:21;101114.78;;;13.19;66.08
74045;BME280;62389;51.412;5.436;2023-01-01T06:37:46;101113.25;;;13.15;66.41
74045;BME280;62389;51.412;5.436;2023-01-01T06:40:11;101128.22;;;13.13;67.77
74045;BME280;62389;51.412;5.436;2023-01-01T06:42:38;101134.47;;;13.11;66.59
74045;BME280;62389;51.412;5.436;2023-01-01T06:45:04;101139.75;;;13.11;67.02
74045;BME280;62389;51.412;5.436;2023-01-01T06:47:32;101144.38;;;13.06;68.60
74045;BME280;62389;51.412;5.436;2023-01-01T06:49:58;101154.25;;;13.01;70.39
74045;BME280;62389;51.412;5.436;2023-01-01T06:52:23;101169.41;;;12.94;70.88
74045;BME280;62389;51.412;5.436;2023-01-01T06:54:49;101183.91;;;12.84;72.86
74045;BME280;62389;51.412;5.436;2023-01-01T06:57:14;101187.91;;;12.74;74.96
74045;BME280;62389;51.412;5.436;2023-01-01T06:59:40;101207.78;;;12.60;75.33
74045;BME280;62389;51.412;5.436;2023-01-01T07:02:09;101208.91;;;12.36;77.40
74045;BME280;62389;51.412;5.436;2023-01-01T07:04:34;101203.53;;;12.18;78.44
74045;BME280;62389;51.412;5.436;2023-01-01T07:06:59;101204.09;;;12.06;79.44
74045;BME280;62389;51.412;5.436;2023-01-01T07:09:25;101198.47;;;11.95;80.64
74045;BME280;62389;51.412;5.436;2023-01-01T07:11:50;101209.22;;;11.89;80.36
74045;BME280;62389;51.412;5.436;2023-01-01T07:14:16;101220.19;;;11.77;81.55
74045;BME280;62389;51.412;5.436;2023-01-01T07:16:41;101217.00;;;11.70;81.77
74045;BME280;62389;51.412;5.436;2023-01-01T07:19:06;101230.31;;;11.64;82.56
74045;BME280;62389;51.412;5.436;2023-01-01T07:21:52;101223.53;;;11.60;81.11
74045;BME280;62389;51.412;5.436;2023-01-01T07:24:19;101230.84;;;11.52;83.39
74045;BME280;62389;51.412;5.436;2023-01-01T07:26:44;101223.47;;;11.39;83.48
74045;BME280;62389;51.412;5.436;2023-01-01T07:29:10;101225.38;;;11.36;83.92
74045;BME280;62389;51.412;5.436;2023-01-01T07:31:37;101233.19;;;11.37;80.51
74045;BME280;62389;51.412;5.436;2023-01-01T07:34:08;101245.53;;;11.34;84.25
74045;BME280;62389;51.412;5.436;2023-01-01T07:36:33;101251.84;;;11.30;84.69
74045;BME280;62389;51.412;5.436;2023-01-01T07:38:59;101252.69;;;11.30;84.63
74045;BME280;62389;51.412;5.436;2023-01-01T07:41:24;101237.81;;;11.31;85.18
74045;BME280;62389;51.412;5.436;2023-01-01T07:43:49;101252.72;;;11.29;84.67
74045;BME280;62389;51.412;5.436;2023-01-01T07:46:15;101244.94;;;11.27;85.19
74045;BME280;62389;51.412;5.436;2023-01-01T07:48:43;101245.84;;;11.26;85.17
74045;BME280;62389;51.412;5.436;2023-01-01T07:51:08;101242.41;;;11.26;85.36
74045;BME280;62389;51.412;5.436;2023-01-01T07:53:33;101242.44;;;11.24;85.09
74045;BME280;62389;51.412;5.436;2023-01-01T07:55:59;101250.34;;;11.23;85.69
74045;BME280;62389;51.412;5.436;2023-01-01T07:58:24;101249.63;;;11.19;85.58
74045;BME280;62389;51.412;5.436;2023-01-01T08:00:49;101262.66;;;11.21;85.57
74045;BME280;62389;51.412;5.436;2023-01-01T08:03:15;101268.81;;;11.20;86.08
74045;BME280;62389;51.412;5.436;2023-01-01T08:05:40;101281.94;;;11.18;86.09
74045;BME280;62389;51.412;5.436;2023-01-01T08:08:06;101292.31;;;11.21;85.77
74045;BME280;62389;51.412;5.436;2023-01-01T08:10:32;101312.34;;;11.22;86.05
74045;BME280;62389;51.412;5.436;2023-01-01T08:13:02;101301.97;;;11.19;85.82
74045;BME280;62389;51.412;5.436;2023-01-01T08:15:28;101326.47;;;11.18;86.12
74045;BME280;62389;51.412;5.436;2023-01-01T08:18:00;101306.44;;;11.17;86.47
74045;BME280;62389;51.412;5.436;2023-01-01T08:20:27;101316.00;;;11.18;86.42
74045;BME280;62389;51.412;5.436;2023-01-01T08:23:00;101309.84;;;11.19;85.92
74045;BME280;62389;51.412;5.436;2023-01-01T08:25:25;101302.97;;;11.17;86.38
74045;BME280;62389;51.412;5.436;2023-01-01T08:27:51;101311.84;;;11.12;86.54
74045;BME280;62389;51.412;5.436;2023-01-01T08:30:16;101308.38;;;11.12;86.86
74045;BME280;62389;51.412;5.436;2023-01-01T08:32:42;101318.78;;;11.13;86.49
74045;BME280;62389;51.412;5.436;2023-01-01T08:35:07;101325.69;;;11.16;86.96
74045;BME280;62389;51.412;5.436;2023-01-01T08:37:33;101325.53;;;11.19;86.63
74045;BME280;62389;51.412;5.436;2023-01-01T08:39:58;101331.59;;;11.21;86.90
74045;BME280;62389;51.412;5.436;2023-01-01T08:42:24;101334.16;;;11.23;86.96
74045;BME280;62389;51.412;5.436;2023-01-01T08:44:49;101355.03;;;11.24;86.80
74045;BME280;62389;51.412;5.436;2023-01-01T08:47:25;101351.44;;;11.27;86.02
74045;BME280;62389;51.412;5.436;2023-01-01T08:49:51;101347.81;;;11.31;86.56
74045;BME280;62389;51.412;5.436;2023-01-01T08:52:17;101373.16;;;11.30;86.83
74045;BME280;62389;51.412;5.436;2023-01-01T08:54:42;101357.44;;;11.30;86.95
74045;BME280;62389;51.412;5.436;2023-01-01T08:57:08;101354.69;;;11.33;86.83
74045;BME280;62389;51.412;5.436;2023-01-01T08:59:34;101356.59;;;11.30;87.41
74045;BME280;62389;51.412;5.436;2023-01-01T09:01:59;101350.59;;;11.26;87.22
74045;BME280;62389;51.412;5.436;2023-01-01T09:04:25;101355.00;;;11.26;87.66
74045;BME280;62389;51.412;5.436;2023-01-01T09:06:50;101351.56;;;11.24;87.47
74045;BME280;62389;51.412;5.436;2023-01-01T09:09:16;101358.56;;;11.23;87.57
74045;BME280;62389;51.412;5.436;2023-01-01T09:11:50;101357.66;;;11.24;86.79
74045;BME280;62389;51.412;5.436;2023-01-01T09:14:15;101362.09;;;11.22;87.47
74045;BME280;62389;51.412;5.436;2023-01-01T09:16:41;101369.94;;;11.22;87.30
74045;BME280;62389;51.412;5.436;2023-01-01T09:19:06;101377.81;;;11.22;87.85
74045;BME280;62389;51.412;5.436;2023-01-01T09:21:31;101375.09;;;11.25;88.00
74045;BME280;62389;51.412;5.436;2023-01-01T09:23:57;101373.25;;;11.27;87.47
74045;BME280;62389;51.412;5.436;2023-01-01T09:26:22;101382.09;;;11.25;87.85
74045;BME280;62389;51.412;5.436;2023-01-01T09:28:47;101382.13;;;11.23;87.78
74045;BME280;62389;51.412;5.436;2023-01-01T09:31:13;101384.06;;;11.18;87.66
74045;BME280;62389;51.412;5.436;2023-01-01T09:33:38;101387.59;;;11.17;87.90
74045;BME280;62389;51.412;5.436;2023-01-01T09:36:25;101370.97;;;11.18;87.24
74045;BME280;62389;51.412;5.436;2023-01-01T09:38:52;101382.28;;;11.19;88.06
74045;BME280;62389;51.412;5.436;2023-01-01T09:41:29;101390.16;;;11.19;88.21
74045;BME280;62389;51.412;5.436;2023-01-01T09:44:12;101383.16;;;11.19;87.64
74045;BME280;62389;51.412;5.436;2023-01-01T09:46:42;101386.50;;;11.23;88.08
74045;BME280;62389;51.412;5.436;2023-01-01T09:49:39;101378.38;;;11.30;87.20
74045;BME280;62389;51.412;5.436;2023-01-01T09:52:11;101379.94;;;11.34;87.71
74045;BME280;62389;51.412;5.436;2023-01-01T09:54:47;101388.56;;;11.38;87.52
74045;BME280;62389;51.412;5.436;2023-01-01T09:57:16;101394.47;;;11.43;87.16
74045;BME280;62389;51.412;5.436;2023-01-01T09:59:41;101387.47;;;11.44;87.33
74045;BME280;62389;51.412;5.436;2023-01-01T10:11:15;101379.06;;;11.57;84.47
74045;BME280;62389;51.412;5.436;2023-01-01T10:13:44;101372.81;;;11.61;83.93
74045;BME280;62389;51.412;5.436;2023-01-01T10:18:36;101367.06;;;11.74;83.49
74045;BME280;62389;51.412;5.436;2023-01-01T10:21:24;101372.91;;;11.82;83.70
74045;BME280;62389;51.412;5.436;2023-01-01T10:23:55;101375.25;;;11.88;83.12
74045;BME280;62389;51.412;5.436;2023-01-01T10:26:25;101374.16;;;11.93;81.99
74045;BME280;62389;51.412;5.436;2023-01-01T10:29:01;101375.75;;;11.98;82.53
74045;BME280;62389;51.412;5.436;2023-01-01T10:31:44;101389.41;;;12.06;81.57
74045;BME280;62389;51.412;5.436;2023-01-01T10:34:24;101392.53;;;12.14;82.20
74045;BME280;62389;51.412;5.436;2023-01-01T10:36:53;101380.91;;;12.21;80.84
74045;BME280;62389;51.412;5.436;2023-01-01T10:39:19;101386.81;;;12.26;80.54
74045;BME280;62389;51.412;5.436;2023-01-01T10:41:45;101384.00;;;12.31;79.91
74045;BME280;62389;51.412;5.436;2023-01-01T10:44:12;101370.72;;;12.34;80.37
74045;BME280;62389;51.412;5.436;2023-01-01T10:46:42;101377.44;;;12.41;79.59
74045;BME280;62389;51.412;5.436;2023-01-01T10:49:11;101373.69;;;12.47;78.09
74045;BME280;62389;51.412;5.436;2023-01-01T10:51:41;101375.13;;;12.54;79.05
74045;BME280;62389;51.412;5.436;2023-01-01T10:56:51;101362.19;;;12.69;77.15
74045;BME280;62389;51.412;5.436;2023-01-01T10:59:37;101368.06;;;12.75;79.19
74045;BME280;62389;51.412;5.436;2023-01-01T11:02:26;101366.81;;;12.83;78.04
74045;BME280;62389;51.412;5.436;2023-01-01T11:05:19;101371.75;;;12.91;77.17
74045;BME280;62389;51.412;5.436;2023-01-01T11:07:45;101377.66;;;12.96;76.13
74045;BME280;62389;51.412;5.436;2023-01-01T11:10:22;101380.06;;;13.01;76.01
74045;BME280;62389;51.412;5.436;2023-01-01T11:12:48;101393.97;;;13.03;75.42
74045;BME280;62389;51.412;5.436;2023-01-01T11:15:42;101390.28;;;13.07;75.03
74045;BME280;62389;51.412;5.436;2023-01-01T11:18:19;101396.19;;;13.12;75.60
74045;BME280;62389;51.412;5.436;2023-01-01T11:20:53;101401.28;;;13.15;74.51
74045;BME280;62389;51.412;5.436;2023-01-01T11:23:39;101414.38;;;13.16;75.36
74045;BME280;62389;51.412;5.436;2023-01-01T11:28:36;101417.28;;;13.10;72.38
74045;BME280;62389;51.412;5.436;2023-01-01T11:31:16;101412.16;;;13.07;73.37
74045;BME280;62389;51.412;5.436;2023-01-01T11:33:51;101400.19;;;13.00;73.88
74045;BME280;62389;51.412;5.436;2023-01-01T11:36:35;101399.22;;;13.03;73.46
74045;BME280;62389;51.412;5.436;2023-01-01T11:39:22;101400.78;;;13.07;73.06
74045;BME280;62389;51.412;5.436;2023-01-01T11:41:52;101397.75;;;13.16;73.59
74045;BME280;62389;51.412;5.436;2023-01-01T11:44:28;101393.81;;;13.26;72.17
74045;BME280;62389;51.412;5.436;2023-01-01T11:46:57;101389.31;;;13.28;70.61
74045;BME280;62389;51.412;5.436;2023-01-01T11:49:26;101377.03;;;13.29;71.38
74045;BME280;62389;51.412;5.436;2023-01-01T11:51:52;101381.38;;;13.30;71.15
74045;BME280;62389;51.412;5.436;2023-01-01T11:54:23;101377.88;;;13.29;71.87
74045;BME280;62389;51.412;5.436;2023-01-01T11:56:52;101389.31;;;13.28;71.51
74045;BME280;62389;51.412;5.436;2023-01-01T11:59:24;101387.63;;;13.27;72.13
74045;BME280;62389;51.412;5.436;2023-01-01T12:01:54;101377.97;;;13.28;71.20
74045;BME280;62389;51.412;5.436;2023-01-01T12:04:31;101391.75;;;13.33;72.14
74045;BME280;62389;51.412;5.436;2023-01-01T12:07:05;101384.59;;;13.36;70.50
74045;BME280;62389;51.412;5.436;2023-01-01T12:10:02;101384.94;;;13.47;69.80
74045;BME280;62389;51.412;5.436;2023-01-01T12:12:30;101390.91;;;13.51;70.40
74045;BME280;62389;51.412;5.436;2023-01-01T12:21:38;101387.56;;;13.47;68.96
74045;BME280;62389;51.412;5.436;2023-01-01T12:24:10;101381.53;;;13.45;69.34
74045;BME280;62389;51.412;5.436;2023-01-01T12:26:56;101393.09;;;13.41;69.64
74045;BME280;62389;51.412;5.436;2023-01-01T12:47:07;101382.41;;;13.99;66.91
74045;BME280;62389;51.412;5.436;2023-01-01T12:58:07;101382.50;;;13.24;68.59
74045;BME280;62389;51.412;5.436;2023-01-01T13:00:37;101382.69;;;13.19;69.88
74045;BME280;62389;51.412;5.436;2023-01-01T13:03:18;101380.44;;;13.12;70.25
74045;BME280;62389;51.412;5.436;2023-01-01T13:05:49;101371.97;;;13.05;69.28
74045;BME280;62389;51.412;5.436;2023-01-01T13:08:15;101366.00;;;13.02;69.33
74045;BME280;62389;51.412;5.436;2023-01-01T13:10:42;101367.84;;;13.00;69.82
74045;BME280;62389;51.412;5.436;2023-01-01T13:13:11;101376.78;;;12.95;70.48
74045;BME280;62389;51.412;5.436;2023-01-01T13:18:25;101382.16;;;12.92;70.23
74045;BME280;62389;51.412;5.436;2023-01-01T13:29:06;101369.44;;;12.83;70.92
74045;BME280;62389;51.412;5.436;2023-01-01T13:45:11;101349.78;;;12.73;72.57
74045;BME280;62389;51.412;5.436;2023-01-01T13:53:42;101357.84;;;12.68;73.02
74045;BME280;62389;51.412;5.436;2023-01-01T13:59:13;101370.41;;;12.62;72.65
74045;BME280;62389;51.412;5.436;2023-01-01T14:04:42;101363.66;;;12.56;72.87
74045;BME280;62389;51.412;5.436;2023-01-01T14:07:25;101371.56;;;12.55;74.21
74045;BME280;62389;51.412;5.436;2023-01-01T14:10:11;101380.38;;;12.54;73.07
74045;BME280;62389;51.412;5.436;2023-01-01T14:12:38;101379.59;;;12.52;73.76
74045;BME280;62389;51.412;5.436;2023-01-01T14:15:14;101385.69;;;12.52;73.26
74045;BME280;62389;51.412;5.436;2023-01-01T14:17:41;101385.78;;;12.51;73.34
74045;BME280;62389;51.412;5.436;2023-01-01T14:20:07;101382.34;;;12.49;74.09
74045;BME280;62389;51.412;5.436;2023-01-01T14:22:33;101384.03;;;12.50;73.44
74045;BME280;62389;51.412;5.436;2023-01-01T14:24:58;101375.41;;;12.48;73.21
74045;BME280;62389;51.412;5.436;2023-01-01T14:27:26;101371.16;;;12.45;73.96
74045;BME280;62389;51.412;5.436;2023-01-01T14:29:52;101381.63;;;12.45;73.69
74045;BME280;62389;51.412;5.436;2023-01-01T14:32:23;101379.06;;;12.43;73.82
74045;BME280;62389;51.412;5.436;2023-01-01T14:35:13;101379.06;;;12.43;74.31
74045;BME280;62389;51.412;5.436;2023-01-01T14:37:39;101373.97;;;12.40;74.39
74045;BME280;62389;51.412;5.436;2023-01-01T14:40:19;101377.47;;;12.39;74.08
74045;BME280;62389;51.412;5.436;2023-01-01T14:43:00;101374.09;;;12.37;74.00
74045;BME280;62389;51.412;5.436;2023-01-01T14:45:26;101368.91;;;12.36;74.40